< Typhoon 197415 1974 Season Typhoon 197417 >
Typhoon 197416 (POLLY)
General InformationTrack Information on Google Maps || NewsDisaster Info.ResourceGoogle EarthGE AnimationAtom FeedGeoJSON
Detalied Best Track (Time Zone = UTC)
Year Month Day Hour Lat. Long. Pressure (hPa) Wind (kt) Class Image Chart
1974 8 25 00 17.0 151.0 1008 0 2 -- Chart
1974 8 25 06 16.9 149.8 1004 0 2 -- Chart
1974 8 25 12 16.7 148.7 1004 0 2 -- Chart
1974 8 25 18 16.3 147.8 1004 0 2 -- Chart
1974 8 26 00 15.7 146.7 1003 0 2 -- Chart
1974 8 26 06 15.3 146.6 996 0 2 -- Chart
1974 8 26 12 15.5 146.4 992 0 9 -- Chart
1974 8 26 18 15.7 146.3 990 0 9 -- Chart
1974 8 27 00 16.2 146.0 985 0 9 -- Chart
1974 8 27 06 16.7 145.5 975 0 9 -- Chart
1974 8 27 12 17.4 145.1 975 0 9 -- Chart
1974 8 27 18 18.3 144.3 965 0 9 -- Chart
1974 8 28 00 19.8 143.5 960 0 9 -- Chart
1974 8 28 06 20.6 142.7 960 0 9 -- Chart
1974 8 28 12 21.6 142.2 950 0 9 -- Chart
1974 8 28 18 22.5 141.8 950 0 9 -- Chart
1974 8 29 00 23.6 141.6 950 0 9 -- Chart
1974 8 29 06 24.8 141.4 950 0 9 -- Chart
1974 8 29 12 26.0 141.1 950 0 9 -- Chart
1974 8 29 18 27.3 140.6 955 0 9 -- Chart
1974 8 30 00 28.3 140.2 955 0 9 -- Chart
1974 8 30 06 29.3 139.5 955 0 9 -- Chart
1974 8 30 12 30.0 138.8 960 0 9 -- Chart
1974 8 30 18 30.4 137.7 955 0 9 -- Chart
1974 8 31 00 30.8 136.8 955 0 9 -- Chart
1974 8 31 06 30.9 135.8 950 0 9 -- Chart
1974 8 31 12 31.0 135.0 950 0 9 -- Chart
1974 8 31 18 31.1 134.1 955 0 9 -- Chart
1974 9 1 00 31.6 133.6 955 0 9 -- Chart
1974 9 1 06 32.5 133.4 955 0 9 -- Chart
1974 9 1 12 34.1 133.1 975 0 9 -- Chart
1974 9 1 18 36.4 132.3 980 0 9 -- Chart
1974 9 2 00 38.0 132.5 985 0 9 -- Chart
1974 9 2 06 39.7 132.9 985 0 9 -- Chart
1974 9 2 12 41.2 133.2 985 0 9 -- Chart
1974 9 2 18 42.3 133.5 985 0 9 -- Chart
1974 9 3 00 43.1 134.0 988 0 6 -- Chart
1974 9 3 06 43.5 134.5 988 0 6 -- Chart
1974 9 3 12 44.0 135.1 992 0 6 -- Chart
1974 9 3 18 44.3 136.9 994 0 6 -- Chart
1974 9 4 00 44.0 138.0 1000 0 6 -- Chart
1974 9 4 06 44.0 139.9 1000 0 6 -- Chart
1974 9 4 12 44.0 140.9 1002 0 6 -- Chart
1974 9 4 18 44.0 141.7 1002 0 6 -- Chart
1974 9 5 00 44.0 142.9 1002 0 6 -- Chart
Japan Meteorological Agency Best Track Data | Correction Date : 1989-06-01
< Typhoon 197415 1974 Season Typhoon 197417 >

Help